sensor_id;sensor_type;location;lat;lon;timestamp;P1;durP1;ratioP1;P2;durP2;ratioP2
12703;SDS011;6416;52.182;7.650;2023-01-16T00:00:08;3.20;;;1.40;;
12703;SDS011;6416;52.182;7.650;2023-01-16T00:02:34;5.90;;;1.90;;
12703;SDS011;6416;52.182;7.650;2023-01-16T00:04:59;2.37;;;1.20;;
12703;SDS011;6416;52.182;7.650;2023-01-16T00:07:25;2.93;;;1.63;;
12703;SDS011;6416;52.182;7.650;2023-01-16T00:09:50;2.67;;;1.30;;
12703;SDS011;6416;52.182;7.650;2023-01-16T00:12:16;2.80;;;1.27;;
12703;SDS011;6416;52.182;7.650;2023-01-16T00:14:41;1.33;;;0.90;;
12703;SDS011;6416;52.182;7.650;2023-01-16T00:17:07;1.80;;;0.93;;
12703;SDS011;6416;52.182;7.650;2023-01-16T00:19:32;2.17;;;1.10;;
12703;SDS011;6416;52.182;7.650;2023-01-16T00:21:58;1.57;;;0.80;;
12703;SDS011;6416;52.182;7.650;2023-01-16T00:24:23;1.43;;;0.90;;
12703;SDS011;6416;52.182;7.650;2023-01-16T00:26:49;1.90;;;1.00;;
12703;SDS011;6416;52.182;7.650;2023-01-16T00:29:15;2.40;;;1.13;;
12703;SDS011;6416;52.182;7.650;2023-01-16T00:31:40;2.70;;;1.03;;
12703;SDS011;6416;52.182;7.650;2023-01-16T00:34:06;1.60;;;0.90;;
12703;SDS011;6416;52.182;7.650;2023-01-16T00:36:31;3.50;;;1.10;;
12703;SDS011;6416;52.182;7.650;2023-01-16T00:38:57;2.70;;;1.33;;
12703;SDS011;6416;52.182;7.650;2023-01-16T00:41:22;2.30;;;1.10;;
12703;SDS011;6416;52.182;7.650;2023-01-16T00:43:48;2.43;;;1.20;;
12703;SDS011;6416;52.182;7.650;2023-01-16T00:46:13;1.87;;;1.03;;
12703;SDS011;6416;52.182;7.650;2023-01-16T00:48:39;1.60;;;0.93;;
12703;SDS011;6416;52.182;7.650;2023-01-16T00:51:04;2.03;;;1.10;;
12703;SDS011;6416;52.182;7.650;2023-01-16T00:53:30;1.90;;;1.07;;
12703;SDS011;6416;52.182;7.650;2023-01-16T00:55:55;1.53;;;1.00;;
12703;SDS011;6416;52.182;7.650;2023-01-16T00:58:21;2.63;;;1.03;;
12703;SDS011;6416;52.182;7.650;2023-01-16T01:00:46;3.47;;;1.23;;
12703;SDS011;6416;52.182;7.650;2023-01-16T01:03:12;2.20;;;1.00;;
12703;SDS011;6416;52.182;7.650;2023-01-16T01:05:37;4.23;;;1.33;;
12703;SDS011;6416;52.182;7.650;2023-01-16T01:08:03;1.83;;;1.10;;
12703;SDS011;6416;52.182;7.650;2023-01-16T01:10:29;2.00;;;1.20;;
12703;SDS011;6416;52.182;7.650;2023-01-16T01:12:55;1.73;;;1.10;;
12703;SDS011;6416;52.182;7.650;2023-01-16T01:15:21;2.57;;;1.17;;
12703;SDS011;6416;52.182;7.650;2023-01-16T01:17:47;2.10;;;1.10;;
12703;SDS011;6416;52.182;7.650;2023-01-16T01:20:13;4.67;;;1.57;;
12703;SDS011;6416;52.182;7.650;2023-01-16T01:22:38;2.13;;;1.10;;
12703;SDS011;6416;52.182;7.650;2023-01-16T01:25:04;1.93;;;1.40;;
12703;SDS011;6416;52.182;7.650;2023-01-16T01:27:29;2.10;;;1.30;;
12703;SDS011;6416;52.182;7.650;2023-01-16T01:29:55;2.40;;;1.30;;
12703;SDS011;6416;52.182;7.650;2023-01-16T01:32:20;2.00;;;1.10;;
12703;SDS011;6416;52.182;7.650;2023-01-16T01:34:46;1.13;;;1.03;;
12703;SDS011;6416;52.182;7.650;2023-01-16T01:37:11;1.53;;;0.90;;
12703;SDS011;6416;52.182;7.650;2023-01-16T01:39:37;1.67;;;1.20;;
12703;SDS011;6416;52.182;7.650;2023-01-16T01:42:02;1.10;;;0.93;;
12703;SDS011;6416;52.182;7.650;2023-01-16T01:44:48;1.17;;;0.97;;
12703;SDS011;6416;52.182;7.650;2023-01-16T01:47:14;1.27;;;1.10;;
12703;SDS011;6416;52.182;7.650;2023-01-16T01:49:41;2.13;;;0.93;;
12703;SDS011;6416;52.182;7.650;2023-01-16T01:52:07;1.00;;;0.80;;
12703;SDS011;6416;52.182;7.650;2023-01-16T01:54:38;1.37;;;0.90;;
12703;SDS011;6416;52.182;7.650;2023-01-16T01:57:08;1.27;;;1.00;;
12703;SDS011;6416;52.182;7.650;2023-01-16T01:59:39;1.13;;;1.00;;
12703;SDS011;6416;52.182;7.650;2023-01-16T02:02:10;1.57;;;0.90;;
12703;SDS011;6416;52.182;7.650;2023-01-16T02:04:40;1.83;;;0.90;;
12703;SDS011;6416;52.182;7.650;2023-01-16T02:07:09;3.20;;;0.90;;
12703;SDS011;6416;52.182;7.650;2023-01-16T02:09:37;2.67;;;1.43;;
12703;SDS011;6416;52.182;7.650;2023-01-16T02:12:04;1.80;;;1.40;;
12703;SDS011;6416;52.182;7.650;2023-01-16T02:14:34;1.80;;;1.30;;
12703;SDS011;6416;52.182;7.650;2023-01-16T02:17:03;2.83;;;1.17;;
12703;SDS011;6416;52.182;7.650;2023-01-16T02:31:20;2.30;;;1.20;;
12703;SDS011;6416;52.182;7.650;2023-01-16T02:44:49;1.37;;;1.00;;
12703;SDS011;6416;52.182;7.650;2023-01-16T02:53:21;1.23;;;0.97;;
12703;SDS011;6416;52.182;7.650;2023-01-16T02:55:53;1.47;;;1.20;;
12703;SDS011;6416;52.182;7.650;2023-01-16T02:58:21;2.83;;;1.00;;
12703;SDS011;6416;52.182;7.650;2023-01-16T03:00:48;1.23;;;0.70;;
12703;SDS011;6416;52.182;7.650;2023-01-16T03:03:37;1.47;;;0.90;;
12703;SDS011;6416;52.182;7.650;2023-01-16T03:14:38;2.07;;;1.40;;
12703;SDS011;6416;52.182;7.650;2023-01-16T03:17:38;1.97;;;1.10;;
12703;SDS011;6416;52.182;7.650;2023-01-16T03:20:16;1.93;;;1.17;;
12703;SDS011;6416;52.182;7.650;2023-01-16T03:22:55;2.93;;;1.30;;
12703;SDS011;6416;52.182;7.650;2023-01-16T03:25:43;1.20;;;1.10;;
12703;SDS011;6416;52.182;7.650;2023-01-16T03:31:10;2.47;;;1.20;;
12703;SDS011;6416;52.182;7.650;2023-01-16T03:38:45;2.37;;;1.30;;
12703;SDS011;6416;52.182;7.650;2023-01-16T03:41:14;2.27;;;1.20;;
12703;SDS011;6416;52.182;7.650;2023-01-16T03:43:44;1.67;;;1.37;;
12703;SDS011;6416;52.182;7.650;2023-01-16T03:46:17;1.93;;;1.53;;
12703;SDS011;6416;52.182;7.650;2023-01-16T03:48:49;2.00;;;1.50;;
12703;SDS011;6416;52.182;7.650;2023-01-16T03:51:29;2.37;;;1.77;;
12703;SDS011;6416;52.182;7.650;2023-01-16T03:53:59;2.70;;;1.77;;
12703;SDS011;6416;52.182;7.650;2023-01-16T03:56:45;2.50;;;1.93;;
12703;SDS011;6416;52.182;7.650;2023-01-16T03:59:13;2.53;;;1.30;;
12703;SDS011;6416;52.182;7.650;2023-01-16T04:01:44;1.80;;;1.33;;
12703;SDS011;6416;52.182;7.650;2023-01-16T04:04:27;5.03;;;1.77;;
12703;SDS011;6416;52.182;7.650;2023-01-16T04:07:19;6.50;;;1.53;;
12703;SDS011;6416;52.182;7.650;2023-01-16T04:09:58;1.70;;;1.50;;
12703;SDS011;6416;52.182;7.650;2023-01-16T04:12:28;1.80;;;1.50;;
12703;SDS011;6416;52.182;7.650;2023-01-16T04:14:58;2.37;;;1.33;;
12703;SDS011;6416;52.182;7.650;2023-01-16T04:17:29;2.87;;;1.57;;
12703;SDS011;6416;52.182;7.650;2023-01-16T04:19:55;3.20;;;1.50;;
12703;SDS011;6416;52.182;7.650;2023-01-16T04:22:23;1.93;;;1.50;;
12703;SDS011;6416;52.182;7.650;2023-01-16T04:24:50;3.67;;;1.50;;
12703;SDS011;6416;52.182;7.650;2023-01-16T04:27:18;3.07;;;1.53;;
12703;SDS011;6416;52.182;7.650;2023-01-16T04:29:44;3.63;;;1.60;;
12703;SDS011;6416;52.182;7.650;2023-01-16T04:32:10;1.93;;;1.40;;
12703;SDS011;6416;52.182;7.650;2023-01-16T04:34:35;2.20;;;1.30;;
12703;SDS011;6416;52.182;7.650;2023-01-16T04:37:01;2.73;;;1.43;;
12703;SDS011;6416;52.182;7.650;2023-01-16T04:39:26;1.67;;;1.57;;
12703;SDS011;6416;52.182;7.650;2023-01-16T04:41:52;1.63;;;1.40;;
12703;SDS011;6416;52.182;7.650;2023-01-16T04:44:17;2.50;;;1.33;;
12703;SDS011;6416;52.182;7.650;2023-01-16T04:46:43;3.33;;;1.50;;
12703;SDS011;6416;52.182;7.650;2023-01-16T04:49:08;2.93;;;1.27;;
12703;SDS011;6416;52.182;7.650;2023-01-16T04:51:34;1.53;;;1.10;;
12703;SDS011;6416;52.182;7.650;2023-01-16T04:54:01;2.03;;;1.13;;
12703;SDS011;6416;52.182;7.650;2023-01-16T04:56:27;1.90;;;1.13;;
12703;SDS011;6416;52.182;7.650;2023-01-16T04:58:53;2.00;;;1.30;;
12703;SDS011;6416;52.182;7.650;2023-01-16T05:01:18;1.33;;;0.90;;
12703;SDS011;6416;52.182;7.650;2023-01-16T05:03:44;2.20;;;1.23;;
12703;SDS011;6416;52.182;7.650;2023-01-16T05:06:10;2.90;;;1.10;;
12703;SDS011;6416;52.182;7.650;2023-01-16T05:08:35;1.27;;;1.10;;
12703;SDS011;6416;52.182;7.650;2023-01-16T05:11:01;1.93;;;1.00;;
12703;SDS011;6416;52.182;7.650;2023-01-16T05:13:27;1.90;;;1.10;;
12703;SDS011;6416;52.182;7.650;2023-01-16T05:15:53;3.00;;;1.33;;
12703;SDS011;6416;52.182;7.650;2023-01-16T05:18:19;5.07;;;1.60;;
12703;SDS011;6416;52.182;7.650;2023-01-16T05:20:44;2.07;;;1.30;;
12703;SDS011;6416;52.182;7.650;2023-01-16T05:23:10;2.00;;;1.27;;
12703;SDS011;6416;52.182;7.650;2023-01-16T05:25:35;1.40;;;1.13;;
12703;SDS011;6416;52.182;7.650;2023-01-16T05:28:01;1.47;;;1.37;;
12703;SDS011;6416;52.182;7.650;2023-01-16T05:30:28;1.07;;;0.97;;
12703;SDS011;6416;52.182;7.650;2023-01-16T05:32:53;1.77;;;1.27;;
12703;SDS011;6416;52.182;7.650;2023-01-16T05:35:19;1.60;;;1.30;;
12703;SDS011;6416;52.182;7.650;2023-01-16T05:37:44;1.07;;;1.00;;
12703;SDS011;6416;52.182;7.650;2023-01-16T05:40:10;3.03;;;1.30;;
12703;SDS011;6416;52.182;7.650;2023-01-16T05:42:36;2.07;;;1.40;;
12703;SDS011;6416;52.182;7.650;2023-01-16T05:45:02;1.53;;;1.00;;
12703;SDS011;6416;52.182;7.650;2023-01-16T05:47:28;1.50;;;1.13;;
12703;SDS011;6416;52.182;7.650;2023-01-16T05:49:54;2.20;;;1.10;;
12703;SDS011;6416;52.182;7.650;2023-01-16T05:52:19;1.40;;;1.20;;
12703;SDS011;6416;52.182;7.650;2023-01-16T05:54:45;2.10;;;1.20;;
12703;SDS011;6416;52.182;7.650;2023-01-16T05:57:10;1.83;;;1.10;;
12703;SDS011;6416;52.182;7.650;2023-01-16T05:59:36;2.10;;;1.13;;
12703;SDS011;6416;52.182;7.650;2023-01-16T06:02:01;2.13;;;1.30;;
12703;SDS011;6416;52.182;7.650;2023-01-16T06:04:27;2.43;;;1.40;;
12703;SDS011;6416;52.182;7.650;2023-01-16T06:06:52;2.40;;;1.50;;
12703;SDS011;6416;52.182;7.650;2023-01-16T06:09:18;2.30;;;1.40;;
12703;SDS011;6416;52.182;7.650;2023-01-16T06:11:43;2.97;;;1.50;;
12703;SDS011;6416;52.182;7.650;2023-01-16T06:14:09;2.50;;;1.70;;
12703;SDS011;6416;52.182;7.650;2023-01-16T06:16:34;2.60;;;1.40;;
12703;SDS011;6416;52.182;7.650;2023-01-16T06:19:00;2.40;;;1.47;;
12703;SDS011;6416;52.182;7.650;2023-01-16T06:21:26;2.50;;;1.33;;
12703;SDS011;6416;52.182;7.650;2023-01-16T06:23:52;1.10;;;0.97;;
12703;SDS011;6416;52.182;7.650;2023-01-16T06:26:18;2.30;;;1.00;;
12703;SDS011;6416;52.182;7.650;2023-01-16T06:28:43;1.37;;;1.00;;
12703;SDS011;6416;52.182;7.650;2023-01-16T06:31:08;1.30;;;1.00;;
12703;SDS011;6416;52.182;7.650;2023-01-16T06:33:34;1.33;;;1.10;;
12703;SDS011;6416;52.182;7.650;2023-01-16T06:36:00;1.20;;;0.97;;
12703;SDS011;6416;52.182;7.650;2023-01-16T06:38:25;1.90;;;1.17;;
12703;SDS011;6416;52.182;7.650;2023-01-16T06:40:51;2.10;;;1.27;;
12703;SDS011;6416;52.182;7.650;2023-01-16T06:43:17;2.07;;;1.07;;
12703;SDS011;6416;52.182;7.650;2023-01-16T06:45:42;1.57;;;1.00;;
12703;SDS011;6416;52.182;7.650;2023-01-16T06:48:08;2.80;;;1.10;;
12703;SDS011;6416;52.182;7.650;2023-01-16T06:50:33;2.00;;;1.03;;
12703;SDS011;6416;52.182;7.650;2023-01-16T06:52:59;1.17;;;0.80;;
12703;SDS011;6416;52.182;7.650;2023-01-16T06:55:24;0.77;;;0.73;;
12703;SDS011;6416;52.182;7.650;2023-01-16T06:57:50;1.30;;;1.00;;
12703;SDS011;6416;52.182;7.650;2023-01-16T07:00:16;1.47;;;1.10;;
12703;SDS011;6416;52.182;7.650;2023-01-16T07:02:41;1.20;;;1.07;;
12703;SDS011;6416;52.182;7.650;2023-01-16T07:05:07;1.13;;;0.90;;
12703;SDS011;6416;52.182;7.650;2023-01-16T07:07:34;2.67;;;1.33;;
12703;SDS011;6416;52.182;7.650;2023-01-16T07:09:59;3.00;;;1.67;;
12703;SDS011;6416;52.182;7.650;2023-01-16T07:12:25;1.90;;;1.20;;
12703;SDS011;6416;52.182;7.650;2023-01-16T07:14:50;2.17;;;1.27;;
12703;SDS011;6416;52.182;7.650;2023-01-16T07:17:16;2.40;;;1.37;;
12703;SDS011;6416;52.182;7.650;2023-01-16T07:19:41;2.07;;;1.10;;
12703;SDS011;6416;52.182;7.650;2023-01-16T07:22:07;1.87;;;1.00;;
12703;SDS011;6416;52.182;7.650;2023-01-16T07:24:37;1.10;;;1.00;;
12703;SDS011;6416;52.182;7.650;2023-01-16T07:27:04;1.30;;;1.03;;
12703;SDS011;6416;52.182;7.650;2023-01-16T07:29:32;0.90;;;0.80;;
12703;SDS011;6416;52.182;7.650;2023-01-16T07:31:58;1.47;;;1.10;;
12703;SDS011;6416;52.182;7.650;2023-01-16T07:34:26;2.50;;;0.90;;
12703;SDS011;6416;52.182;7.650;2023-01-16T07:36:52;0.97;;;0.87;;
12703;SDS011;6416;52.182;7.650;2023-01-16T07:39:17;3.13;;;1.40;;
12703;SDS011;6416;52.182;7.650;2023-01-16T07:41:43;2.33;;;1.13;;
12703;SDS011;6416;52.182;7.650;2023-01-16T07:44:09;2.60;;;1.00;;
12703;SDS011;6416;52.182;7.650;2023-01-16T07:46:35;1.53;;;0.93;;
12703;SDS011;6416;52.182;7.650;2023-01-16T07:49:00;1.03;;;0.93;;
12703;SDS011;6416;52.182;7.650;2023-01-16T07:51:26;1.10;;;0.90;;
12703;SDS011;6416;52.182;7.650;2023-01-16T07:53:51;1.03;;;0.87;;
12703;SDS011;6416;52.182;7.650;2023-01-16T07:56:17;0.87;;;0.80;;
12703;SDS011;6416;52.182;7.650;2023-01-16T07:58:42;1.33;;;0.83;;
12703;SDS011;6416;52.182;7.650;2023-01-16T08:01:08;1.50;;;1.03;;
12703;SDS011;6416;52.182;7.650;2023-01-16T08:03:34;1.97;;;0.83;;
12703;SDS011;6416;52.182;7.650;2023-01-16T08:06:00;1.17;;;0.90;;
12703;SDS011;6416;52.182;7.650;2023-01-16T08:08:26;1.30;;;1.00;;
12703;SDS011;6416;52.182;7.650;2023-01-16T08:10:57;0.83;;;0.80;;
12703;SDS011;6416;52.182;7.650;2023-01-16T08:13:24;1.53;;;1.10;;
12703;SDS011;6416;52.182;7.650;2023-01-16T08:15:51;2.07;;;0.90;;
12703;SDS011;6416;52.182;7.650;2023-01-16T08:18:17;1.53;;;1.10;;
12703;SDS011;6416;52.182;7.650;2023-01-16T08:20:43;2.10;;;0.90;;
12703;SDS011;6416;52.182;7.650;2023-01-16T08:23:08;2.00;;;1.03;;
12703;SDS011;6416;52.182;7.650;2023-01-16T08:25:34;0.80;;;0.80;;
12703;SDS011;6416;52.182;7.650;2023-01-16T08:27:59;0.80;;;0.80;;
12703;SDS011;6416;52.182;7.650;2023-01-16T08:30:25;1.10;;;1.00;;
12703;SDS011;6416;52.182;7.650;2023-01-16T08:32:56;1.23;;;1.00;;
12703;SDS011;6416;52.182;7.650;2023-01-16T08:35:25;1.20;;;1.10;;
12703;SDS011;6416;52.182;7.650;2023-01-16T08:37:50;1.00;;;0.90;;
12703;SDS011;6416;52.182;7.650;2023-01-16T08:40:16;1.07;;;0.97;;
12703;SDS011;6416;52.182;7.650;2023-01-16T08:42:42;1.83;;;0.97;;
12703;SDS011;6416;52.182;7.650;2023-01-16T08:45:12;2.13;;;1.10;;
12703;SDS011;6416;52.182;7.650;2023-01-16T08:47:38;1.70;;;1.03;;
12703;SDS011;6416;52.182;7.650;2023-01-16T08:50:03;2.00;;;1.07;;
12703;SDS011;6416;52.182;7.650;2023-01-16T08:52:29;1.30;;;1.20;;
12703;SDS011;6416;52.182;7.650;2023-01-16T08:54:56;1.50;;;0.97;;
12703;SDS011;6416;52.182;7.650;2023-01-16T08:57:22;1.67;;;1.40;;
12703;SDS011;6416;52.182;7.650;2023-01-16T08:59:48;1.30;;;1.10;;
12703;SDS011;6416;52.182;7.650;2023-01-16T09:02:13;1.30;;;1.20;;
12703;SDS011;6416;52.182;7.650;2023-01-16T09:04:39;1.43;;;1.10;;
12703;SDS011;6416;52.182;7.650;2023-01-16T09:07:05;1.40;;;1.20;;
12703;SDS011;6416;52.182;7.650;2023-01-16T09:09:30;2.50;;;1.40;;
12703;SDS011;6416;52.182;7.650;2023-01-16T09:11:56;1.17;;;0.90;;
12703;SDS011;6416;52.182;7.650;2023-01-16T09:14:22;1.27;;;1.07;;
12703;SDS011;6416;52.182;7.650;2023-01-16T09:16:47;1.60;;;1.17;;
12703;SDS011;6416;52.182;7.650;2023-01-16T09:19:13;1.43;;;1.00;;
12703;SDS011;6416;52.182;7.650;2023-01-16T09:21:38;1.23;;;1.00;;
12703;SDS011;6416;52.182;7.650;2023-01-16T09:24:04;2.00;;;1.10;;
12703;SDS011;6416;52.182;7.650;2023-01-16T09:26:29;1.20;;;1.00;;
12703;SDS011;6416;52.182;7.650;2023-01-16T09:28:55;1.60;;;1.20;;
12703;SDS011;6416;52.182;7.650;2023-01-16T09:31:20;2.43;;;1.20;;
12703;SDS011;6416;52.182;7.650;2023-01-16T09:33:46;1.10;;;0.87;;
12703;SDS011;6416;52.182;7.650;2023-01-16T09:36:11;2.50;;;1.17;;
12703;SDS011;6416;52.182;7.650;2023-01-16T09:38:37;1.67;;;1.07;;
12703;SDS011;6416;52.182;7.650;2023-01-16T09:41:03;1.43;;;1.20;;
12703;SDS011;6416;52.182;7.650;2023-01-16T09:43:33;2.13;;;1.30;;
12703;SDS011;6416;52.182;7.650;2023-01-16T09:48:39;1.67;;;1.30;;
12703;SDS011;6416;52.182;7.650;2023-01-16T09:51:11;2.23;;;1.30;;
12703;SDS011;6416;52.182;7.650;2023-01-16T09:53:45;1.20;;;1.10;;
12703;SDS011;6416;52.182;7.650;2023-01-16T09:56:16;1.90;;;1.10;;
12703;SDS011;6416;52.182;7.650;2023-01-16T09:59:20;1.83;;;1.30;;
12703;SDS011;6416;52.182;7.650;2023-01-16T10:01:47;2.13;;;1.30;;
12703;SDS011;6416;52.182;7.650;2023-01-16T10:04:44;1.43;;;1.23;;
12703;SDS011;6416;52.182;7.650;2023-01-16T10:07:16;1.50;;;1.10;;
12703;SDS011;6416;52.182;7.650;2023-01-16T10:12:32;2.40;;;1.40;;
12703;SDS011;6416;52.182;7.650;2023-01-16T10:15:04;1.73;;;1.37;;
12703;SDS011;6416;52.182;7.650;2023-01-16T10:20:17;1.30;;;1.07;;
12703;SDS011;6416;52.182;7.650;2023-01-16T10:25:34;2.13;;;1.50;;
12703;SDS011;6416;52.182;7.650;2023-01-16T10:28:12;1.37;;;1.13;;
12703;SDS011;6416;52.182;7.650;2023-01-16T10:30:52;1.30;;;1.03;;
12703;SDS011;6416;52.182;7.650;2023-01-16T10:33:32;1.67;;;1.30;;
12703;SDS011;6416;52.182;7.650;2023-01-16T10:36:33;1.93;;;1.50;;
12703;SDS011;6416;52.182;7.650;2023-01-16T10:39:03;2.40;;;1.53;;
12703;SDS011;6416;52.182;7.650;2023-01-16T10:41:30;2.97;;;1.83;;
12703;SDS011;6416;52.182;7.650;2023-01-16T10:44:01;1.63;;;1.30;;
12703;SDS011;6416;52.182;7.650;2023-01-16T10:46:44;2.47;;;1.30;;
12703;SDS011;6416;52.182;7.650;2023-01-16T10:49:11;1.80;;;1.40;;
12703;SDS011;6416;52.182;7.650;2023-01-16T10:51:40;2.70;;;1.47;;
12703;SDS011;6416;52.182;7.650;2023-01-16T10:54:05;2.67;;;1.70;;
12703;SDS011;6416;52.182;7.650;2023-01-16T10:56:31;1.80;;;1.40;;
12703;SDS011;6416;52.182;7.650;2023-01-16T10:58:56;1.50;;;1.27;;
12703;SDS011;6416;52.182;7.650;2023-01-16T11:01:22;1.60;;;1.47;;
12703;SDS011;6416;52.182;7.650;2023-01-16T11:03:53;1.97;;;1.50;;
12703;SDS011;6416;52.182;7.650;2023-01-16T11:06:23;1.63;;;1.50;;
12703;SDS011;6416;52.182;7.650;2023-01-16T11:11:24;4.07;;;1.60;;
12703;SDS011;6416;52.182;7.650;2023-01-16T11:13:52;1.83;;;1.30;;
12703;SDS011;6416;52.182;7.650;2023-01-16T11:16:19;3.33;;;1.60;;
12703;SDS011;6416;52.182;7.650;2023-01-16T11:18:52;2.80;;;1.70;;
12703;SDS011;6416;52.182;7.650;2023-01-16T11:21:30;1.93;;;1.50;;
12703;SDS011;6416;52.182;7.650;2023-01-16T11:23:59;3.37;;;1.73;;
12703;SDS011;6416;52.182;7.650;2023-01-16T11:26:28;2.97;;;1.47;;
12703;SDS011;6416;52.182;7.650;2023-01-16T11:28:55;3.73;;;1.70;;
12703;SDS011;6416;52.182;7.650;2023-01-16T11:31:22;2.00;;;1.20;;
12703;SDS011;6416;52.182;7.650;2023-01-16T11:33:52;1.27;;;1.17;;
12703;SDS011;6416;52.182;7.650;2023-01-16T11:36:21;1.30;;;1.20;;
12703;SDS011;6416;52.182;7.650;2023-01-16T11:38:50;2.70;;;1.23;;
12703;SDS011;6416;52.182;7.650;2023-01-16T11:41:18;1.40;;;1.10;;
12703;SDS011;6416;52.182;7.650;2023-01-16T11:43:46;2.27;;;1.20;;
12703;SDS011;6416;52.182;7.650;2023-01-16T11:49:03;1.33;;;1.00;;
12703;SDS011;6416;52.182;7.650;2023-01-16T11:51:38;1.10;;;1.00;;
12703;SDS011;6416;52.182;7.650;2023-01-16T11:54:05;1.40;;;0.93;;
12703;SDS011;6416;52.182;7.650;2023-01-16T11:56:49;0.77;;;0.77;;
12703;SDS011;6416;52.182;7.650;2023-01-16T11:59:46;1.00;;;0.90;;
12703;SDS011;6416;52.182;7.650;2023-01-16T12:02:40;1.47;;;1.10;;
12703;SDS011;6416;52.182;7.650;2023-01-16T12:11:29;0.83;;;0.83;;
12703;SDS011;6416;52.182;7.650;2023-01-16T12:14:26;1.23;;;0.80;;
12703;SDS011;6416;52.182;7.650;2023-01-16T12:17:17;1.23;;;0.80;;
12703;SDS011;6416;52.182;7.650;2023-01-16T12:25:24;2.13;;;0.80;;
12703;SDS011;6416;52.182;7.650;2023-01-16T12:28:10;0.70;;;0.70;;
12703;SDS011;6416;52.182;7.650;2023-01-16T12:33:27;0.80;;;0.80;;
12703;SDS011;6416;52.182;7.650;2023-01-16T12:38:35;0.87;;;0.80;;
12703;SDS011;6416;52.182;7.650;2023-01-16T12:46:53;0.60;;;0.60;;
12703;SDS011;6416;52.182;7.650;2023-01-16T12:52:30;0.60;;;0.60;;
12703;SDS011;6416;52.182;7.650;2023-01-16T12:57:46;0.80;;;0.77;;
12703;SDS011;6416;52.182;7.650;2023-01-16T13:00:25;0.93;;;0.60;;
12703;SDS011;6416;52.182;7.650;2023-01-16T13:03:19;0.80;;;0.70;;
12703;SDS011;6416;52.182;7.650;2023-01-16T13:05:51;0.80;;;0.70;;
12703;SDS011;6416;52.182;7.650;2023-01-16T13:11:09;0.70;;;0.70;;
12703;SDS011;6416;52.182;7.650;2023-01-16T13:13:52;0.67;;;0.67;;
12703;SDS011;6416;52.182;7.650;2023-01-16T13:16:29;0.90;;;0.60;;
12703;SDS011;6416;52.182;7.650;2023-01-16T13:19:04;0.80;;;0.80;;
12703;SDS011;6416;52.182;7.650;2023-01-16T13:24:26;0.87;;;0.70;;
12703;SDS011;6416;52.182;7.650;2023-01-16T13:26:57;0.57;;;0.57;;
12703;SDS011;6416;52.182;7.650;2023-01-16T13:29:28;0.87;;;0.60;;
12703;SDS011;6416;52.182;7.650;2023-01-16T13:31:59;0.70;;;0.70;;
12703;SDS011;6416;52.182;7.650;2023-01-16T13:34:51;0.50;;;0.50;;
12703;SDS011;6416;52.182;7.650;2023-01-16T13:43:02;1.83;;;1.30;;
12703;SDS011;6416;52.182;7.650;2023-01-16T13:45:32;1.13;;;0.80;;
12703;SDS011;6416;52.182;7.650;2023-01-16T13:47:58;0.70;;;0.70;;
12703;SDS011;6416;52.182;7.650;2023-01-16T13:50:24;1.43;;;0.70;;
12703;SDS011;6416;52.182;7.650;2023-01-16T13:52:56;0.60;;;0.60;;
12703;SDS011;6416;52.182;7.650;2023-01-16T13:55:30;0.50;;;0.50;;
12703;SDS011;6416;52.182;7.650;2023-01-16T13:58:20;0.50;;;0.50;;
12703;SDS011;6416;52.182;7.650;2023-01-16T14:00:55;0.80;;;0.80;;
12703;SDS011;6416;52.182;7.650;2023-01-16T14:03:24;0.70;;;0.70;;
12703;SDS011;6416;52.182;7.650;2023-01-16T14:08:19;0.97;;;0.83;;
12703;SDS011;6416;52.182;7.650;2023-01-16T14:13:48;1.00;;;0.80;;
12703;SDS011;6416;52.182;7.650;2023-01-16T14:16:27;0.83;;;0.83;;
12703;SDS011;6416;52.182;7.650;2023-01-16T14:21:25;1.20;;;0.77;;
12703;SDS011;6416;52.182;7.650;2023-01-16T14:23:53;0.60;;;0.60;;
12703;SDS011;6416;52.182;7.650;2023-01-16T14:26:28;0.67;;;0.67;;
12703;SDS011;6416;52.182;7.650;2023-01-16T14:29:13;1.90;;;0.80;;
12703;SDS011;6416;52.182;7.650;2023-01-16T14:32:15;0.97;;;0.77;;
12703;SDS011;6416;52.182;7.650;2023-01-16T14:34:52;1.60;;;0.67;;
12703;SDS011;6416;52.182;7.650;2023-01-16T14:39:51;0.80;;;0.80;;
12703;SDS011;6416;52.182;7.650;2023-01-16T14:42:34;0.77;;;0.70;;
12703;SDS011;6416;52.182;7.650;2023-01-16T14:47:29;0.90;;;0.90;;
12703;SDS011;6416;52.182;7.650;2023-01-16T14:52:56;1.20;;;1.10;;
12703;SDS011;6416;52.182;7.650;2023-01-16T14:58:34;0.70;;;0.70;;
12703;SDS011;6416;52.182;7.650;2023-01-16T15:01:14;1.23;;;0.90;;
12703;SDS011;6416;52.182;7.650;2023-01-16T15:03:47;0.80;;;0.80;;
12703;SDS011;6416;52.182;7.650;2023-01-16T15:06:13;0.90;;;0.60;;
12703;SDS011;6416;52.182;7.650;2023-01-16T15:08:39;0.90;;;0.70;;
12703;SDS011;6416;52.182;7.650;2023-01-16T15:13:43;0.63;;;0.63;;
12703;SDS011;6416;52.182;7.650;2023-01-16T15:16:09;0.70;;;0.70;;
12703;SDS011;6416;52.182;7.650;2023-01-16T15:18:41;2.27;;;0.77;;
12703;SDS011;6416;52.182;7.650;2023-01-16T15:21:10;0.60;;;0.60;;
12703;SDS011;6416;52.182;7.650;2023-01-16T15:23:38;0.70;;;0.70;;
12703;SDS011;6416;52.182;7.650;2023-01-16T15:28:35;0.63;;;0.63;;
12703;SDS011;6416;52.182;7.650;2023-01-16T15:31:20;0.63;;;0.63;;
12703;SDS011;6416;52.182;7.650;2023-01-16T15:39:12;0.60;;;0.60;;
12703;SDS011;6416;52.182;7.650;2023-01-16T15:41:42;0.70;;;0.70;;
12703;SDS011;6416;52.182;7.650;2023-01-16T15:44:09;1.40;;;1.00;;
12703;SDS011;6416;52.182;7.650;2023-01-16T15:49:10;0.87;;;0.87;;
12703;SDS011;6416;52.182;7.650;2023-01-16T15:51:52;0.90;;;0.83;;
12703;SDS011;6416;52.182;7.650;2023-01-16T15:54:18;0.83;;;0.83;;
12703;SDS011;6416;52.182;7.650;2023-01-16T15:56:44;0.80;;;0.60;;
12703;SDS011;6416;52.182;7.650;2023-01-16T15:59:20;0.70;;;0.70;;
12703;SDS011;6416;52.182;7.650;2023-01-16T16:01:47;0.80;;;0.80;;
12703;SDS011;6416;52.182;7.650;2023-01-16T16:04:12;0.90;;;0.90;;
12703;SDS011;6416;52.182;7.650;2023-01-16T16:06:38;1.00;;;1.00;;
12703;SDS011;6416;52.182;7.650;2023-01-16T16:09:04;1.10;;;1.00;;
12703;SDS011;6416;52.182;7.650;2023-01-16T16:11:31;1.60;;;0.80;;
12703;SDS011;6416;52.182;7.650;2023-01-16T16:13:57;0.90;;;0.90;;
12703;SDS011;6416;52.182;7.650;2023-01-16T16:16:26;1.53;;;0.90;;
12703;SDS011;6416;52.182;7.650;2023-01-16T16:18:52;3.23;;;1.00;;
12703;SDS011;6416;52.182;7.650;2023-01-16T16:21:18;1.60;;;1.17;;
12703;SDS011;6416;52.182;7.650;2023-01-16T16:23:45;1.13;;;0.93;;
12703;SDS011;6416;52.182;7.650;2023-01-16T16:26:17;1.17;;;0.90;;
12703;SDS011;6416;52.182;7.650;2023-01-16T16:28:43;1.20;;;1.10;;
12703;SDS011;6416;52.182;7.650;2023-01-16T16:31:13;1.10;;;1.00;;
12703;SDS011;6416;52.182;7.650;2023-01-16T16:34:13;1.00;;;0.90;;
12703;SDS011;6416;52.182;7.650;2023-01-16T16:36:46;0.80;;;0.80;;
12703;SDS011;6416;52.182;7.650;2023-01-16T16:39:26;0.80;;;0.80;;
12703;SDS011;6416;52.182;7.650;2023-01-16T16:41:52;0.70;;;0.70;;
12703;SDS011;6416;52.182;7.650;2023-01-16T16:44:21;0.80;;;0.80;;
12703;SDS011;6416;52.182;7.650;2023-01-16T16:46:48;1.13;;;1.00;;
12703;SDS011;6416;52.182;7.650;2023-01-16T16:51:39;0.83;;;0.83;;
12703;SDS011;6416;52.182;7.650;2023-01-16T16:54:06;0.80;;;0.80;;
12703;SDS011;6416;52.182;7.650;2023-01-16T16:56:38;1.53;;;0.90;;
12703;SDS011;6416;52.182;7.650;2023-01-16T16:59:13;1.40;;;0.93;;
12703;SDS011;6416;52.182;7.650;2023-01-16T17:01:46;0.90;;;0.90;;
12703;SDS011;6416;52.182;7.650;2023-01-16T17:04:14;0.97;;;0.80;;
12703;SDS011;6416;52.182;7.650;2023-01-16T17:06:39;0.97;;;0.87;;
12703;SDS011;6416;52.182;7.650;2023-01-16T17:09:05;1.30;;;1.07;;
12703;SDS011;6416;52.182;7.650;2023-01-16T17:11:30;0.70;;;0.70;;
12703;SDS011;6416;52.182;7.650;2023-01-16T17:13:56;0.87;;;0.87;;
12703;SDS011;6416;52.182;7.650;2023-01-16T17:16:23;1.17;;;1.03;;
12703;SDS011;6416;52.182;7.650;2023-01-16T17:19:03;1.30;;;0.90;;
12703;SDS011;6416;52.182;7.650;2023-01-16T17:21:29;0.87;;;0.87;;
12703;SDS011;6416;52.182;7.650;2023-01-16T17:23:54;1.03;;;0.73;;
12703;SDS011;6416;52.182;7.650;2023-01-16T17:26:20;1.47;;;1.30;;
12703;SDS011;6416;52.182;7.650;2023-01-16T17:28:45;2.43;;;2.10;;